CheckWX is a tool to help pilots better visualize weather data.  It is not intended as a substitute for an official pre-flight weather briefing.

17:58:58 UTC

EGXE METAR
Leeming Airport
Leeming, United Kingdom
Current

1 hour ago

EGXE 211650Z AUTO 20009KT 9999 FEW041/// BKN050/// 20/13 Q1016
Observed
Jul-21 @ 16:50 UTC
Wind
  • 200° at 9 KTS
Visibility
10,000+ meters
Flight Rules
VFR
Cloud Levels
  • Few at 4,100' AGL
  • Broken at 5,000' AGL
Temperature
20°C / 68°F
Dewpoint
13°C / 55°F
Humidity
64%
Altimeter
30" Hg
Pressure
1015.92 hPa
Previous

2 hours ago

EGXE 211550Z AUTO 21011KT 9999 BKN050/// 20/12 Q1017
Observed
Jul-21 @ 15:50 UTC
Wind
  • 210° at 11 KTS
Visibility
10,000+ meters
Flight Rules
VFR
Cloud Levels
  • Broken at 5,000' AGL
Temperature
20°C / 68°F
Dewpoint
12°C / 54°F
Humidity
60%
Altimeter
30.03" Hg
Pressure
1016.92 hPa
Previous

3 hours ago

EGXE 211450Z AUTO 21013KT 9999 FEW060/// 21/12 Q1017
Observed
Jul-21 @ 14:50 UTC
Wind
  • 210° at 13 KTS
Visibility
10,000+ meters
Flight Rules
VFR
Cloud Levels
  • Few at 6,000' AGL
Temperature
21°C / 70°F
Dewpoint
12°C / 54°F
Humidity
57%
Altimeter
30.03" Hg
Pressure
1016.92 hPa